createdAt,value
2023-03-06T00:01:48.951Z,54.49
2023-03-06T00:04:51.575Z,55.17
2023-03-06T00:07:54.128Z,55.56
2023-03-06T00:10:57.580Z,56.06
2023-03-06T00:14:00.281Z,55.79
2023-03-06T00:17:02.980Z,56.07
2023-03-06T00:20:06.707Z,56.11
2023-03-06T00:23:10.058Z,57.27
2023-03-06T00:26:12.910Z,57.65
2023-03-06T00:29:17.763Z,57.59
2023-03-06T00:32:20.847Z,57.46
2023-03-06T00:35:23.604Z,58.23
2023-03-06T00:38:28.635Z,57.53
2023-03-06T00:41:32.167Z,56.47
2023-03-06T00:44:36.111Z,56.23
2023-03-06T00:47:39.155Z,56.90
2023-03-06T00:50:41.908Z,57.64
2023-03-06T00:53:44.531Z,58.65
2023-03-06T00:56:47.139Z,59.53
2023-03-06T00:59:50.352Z,58.39
2023-03-06T01:02:53.776Z,57.86
2023-03-06T01:05:58.105Z,58.50
2023-03-06T01:09:06.478Z,58.50
2023-03-06T01:12:09.419Z,58.47
2023-03-06T01:15:13.260Z,57.66
2023-03-06T01:18:16.008Z,60.96
2023-03-06T01:21:19.105Z,56.26
2023-03-06T01:24:24.028Z,57.84
2023-03-06T01:27:26.679Z,59.91
2023-03-06T01:30:29.317Z,60.15
2023-03-06T01:33:31.941Z,59.54
2023-03-06T01:36:34.537Z,59.83
2023-03-06T01:39:38.546Z,60.16
2023-03-06T01:42:42.190Z,60.97
2023-03-06T01:45:50.658Z,62.98
2023-03-06T01:48:56.787Z,62.67
2023-03-06T01:52:21.450Z,63.33
2023-03-06T01:55:31.067Z,62.27
2023-03-06T01:58:34.401Z,61.41
2023-03-06T02:01:39.973Z,61.14
2023-03-06T02:04:44.252Z,61.32
2023-03-06T02:07:48.077Z,62.64
2023-03-06T02:11:08.881Z,62.38
2023-03-06T02:14:14.522Z,62.84
2023-03-06T02:17:20.531Z,62.94
2023-03-06T02:20:31.862Z,62.97
2023-03-06T02:23:49.259Z,63.01
2023-03-06T02:26:53.290Z,63.11
2023-03-06T02:29:56.052Z,62.55
2023-03-06T02:32:58.878Z,61.28
2023-03-06T02:36:06.920Z,63.68
2023-03-06T02:39:10.623Z,63.16
2023-03-06T02:42:19.609Z,62.53
2023-03-06T02:45:45.392Z,62.55
2023-03-06T02:48:48.163Z,62.64
2023-03-06T02:51:50.778Z,62.68
2023-03-06T02:54:53.324Z,62.97
2023-03-06T02:57:56.147Z,62.94
2023-03-06T03:00:59.659Z,63.18
2023-03-06T03:04:02.243Z,64.62
2023-03-06T03:07:05.565Z,63.29
2023-03-06T03:10:08.949Z,64.95
2023-03-06T03:13:11.538Z,62.95
2023-03-06T03:16:15.606Z,63.22
2023-03-06T03:19:18.721Z,63.65
2023-03-06T03:22:22.077Z,62.42
2023-03-06T03:25:26.484Z,64.46
2023-03-06T03:28:31.688Z,64.09
2023-03-06T03:31:34.771Z,63.68
2023-03-06T03:34:38.526Z,65.30
2023-03-06T03:37:41.873Z,64.67
2023-03-06T03:40:45.095Z,65.02
2023-03-06T03:43:48.639Z,65.38
2023-03-06T03:46:51.783Z,65.04
2023-03-06T03:49:57.777Z,64.31
2023-03-06T03:53:00.930Z,64.77
2023-03-06T03:56:04.458Z,65.04
2023-03-06T03:59:09.719Z,65.04
2023-03-06T04:02:21.904Z,64.61
2023-03-06T04:05:36.189Z,65.14
2023-03-06T04:08:41.791Z,66.69
2023-03-06T04:11:44.362Z,66.07
2023-03-06T04:14:47.563Z,66.20
2023-03-06T04:17:50.266Z,65.94
2023-03-06T04:20:56.447Z,66.76
2023-03-06T04:23:59.111Z,66.50
2023-03-06T04:27:01.741Z,66.31
2023-03-06T04:30:06.326Z,66.33
2023-03-06T04:33:10.842Z,66.59
2023-03-06T04:36:30.322Z,66.02
2023-03-06T04:39:36.904Z,66.28
2023-03-06T04:42:39.463Z,66.02
2023-03-06T04:45:42.073Z,66.33
2023-03-06T04:48:44.747Z,66.02
2023-03-06T04:51:47.338Z,65.38
2023-03-06T04:54:49.906Z,65.33
2023-03-06T04:57:52.674Z,67.73
2023-03-06T05:00:55.354Z,68.65
2023-03-06T05:03:57.914Z,68.48
2023-03-06T05:07:00.495Z,68.36
2023-03-06T05:10:03.413Z,68.52
2023-03-06T05:13:06.066Z,68.32
2023-03-06T05:16:09.320Z,68.99
2023-03-06T05:19:12.107Z,69.76
2023-03-06T05:22:14.966Z,68.84
2023-03-06T05:25:17.599Z,66.84
2023-03-06T05:28:20.375Z,67.10
2023-03-06T05:31:23.145Z,67.40
2023-03-06T05:34:25.770Z,67.51
2023-03-06T05:37:28.446Z,66.25
2023-03-06T05:40:31.361Z,67.77
2023-03-06T05:43:33.945Z,66.58
2023-03-06T05:46:37.831Z,66.76
2023-03-06T05:49:41.139Z,67.22
2023-03-06T05:52:43.868Z,67.79
2023-03-06T05:55:46.503Z,67.32
2023-03-06T05:58:49.229Z,67.33
2023-03-06T06:01:51.835Z,67.64
2023-03-06T06:04:54.475Z,68.56
2023-03-06T06:07:57.081Z,67.77
2023-03-06T06:11:00.100Z,66.60
2023-03-06T06:14:02.735Z,68.70
2023-03-06T06:17:05.508Z,67.57
2023-03-06T06:20:08.993Z,68.37
2023-03-06T06:23:11.808Z,67.41
2023-03-06T06:26:14.438Z,65.15
2023-03-06T06:29:17.256Z,66.56
2023-03-06T06:32:20.112Z,65.58
2023-03-06T06:35:23.066Z,67.17
2023-03-06T06:38:26.247Z,67.91
2023-03-06T06:41:53.457Z,67.21
2023-03-06T06:44:53.023Z,66.59
2023-03-06T06:47:55.696Z,67.21
2023-03-06T06:50:59.208Z,66.71
2023-03-06T06:54:04.299Z,66.05
2023-03-06T06:57:06.888Z,65.16
2023-03-06T07:00:13.457Z,65.17
2023-03-06T07:03:16.275Z,64.79
2023-03-06T07:06:19.038Z,64.09
2023-03-06T07:09:22.446Z,63.27
2023-03-06T07:12:25.043Z,61.72
2023-03-06T07:15:29.942Z,62.45
2023-03-06T07:18:32.812Z,60.27
2023-03-06T07:21:36.242Z,60.99
2023-03-06T07:24:38.822Z,60.51
2023-03-06T07:27:41.494Z,60.25
2023-03-06T07:30:44.588Z,59.93
2023-03-06T07:33:47.149Z,58.02
2023-03-06T07:36:50.972Z,59.24
2023-03-06T07:39:53.507Z,59.38
2023-03-06T07:43:09.106Z,58.20
2023-03-06T07:46:19.525Z,57.56
2023-03-06T07:49:25.097Z,55.08
2023-03-06T07:52:29.893Z,53.14
2023-03-06T07:55:32.500Z,53.99
2023-03-06T07:58:36.598Z,53.41
2023-03-06T08:01:40.377Z,53.43
2023-03-06T08:05:48.430Z,53.54
2023-03-06T08:08:54.103Z,53.00
2023-03-06T08:11:57.317Z,53.77
2023-03-06T08:15:03.555Z,53.32
2023-03-06T08:18:06.264Z,52.59
2023-03-06T08:21:11.839Z,52.43
2023-03-06T08:24:16.717Z,53.96
2023-03-06T08:27:19.362Z,51.03
2023-03-06T08:30:22.032Z,49.75
2023-03-06T08:33:25.111Z,49.37
2023-03-06T08:36:28.120Z,49.78
2023-03-06T08:39:32.872Z,48.84
2023-03-06T08:42:44.941Z,50.06
2023-03-06T08:45:55.642Z,48.56
2023-03-06T08:48:58.974Z,49.45
2023-03-06T08:52:01.578Z,49.72
2023-03-06T08:55:05.314Z,49.64
2023-03-06T08:58:08.686Z,49.43
2023-03-06T09:01:16.672Z,48.75
2023-03-06T09:04:19.319Z,48.36
2023-03-06T09:07:21.983Z,46.36
2023-03-06T09:10:26.322Z,48.05
2023-03-06T09:13:29.055Z,47.92
2023-03-06T09:16:32.478Z,47.69
2023-03-06T09:19:35.183Z,47.54
2023-03-06T09:22:38.099Z,47.12
2023-03-06T09:25:40.682Z,46.98
2023-03-06T09:28:43.332Z,46.42
2023-03-06T09:31:46.086Z,47.15
2023-03-06T09:34:50.322Z,47.72
2023-03-06T09:37:52.853Z,47.85
2023-03-06T09:40:58.353Z,47.77
2023-03-06T09:44:14.699Z,46.42
2023-03-06T09:47:52.665Z,47.06
2023-03-06T09:51:08.463Z,47.27
2023-03-06T09:54:16.040Z,47.32
2023-03-06T09:57:28.359Z,48.19
2023-03-06T10:00:51.413Z,48.29
2023-03-06T10:04:12.026Z,49.30
2023-03-06T10:07:51.964Z,51.08
2023-03-06T10:11:01.970Z,50.13
2023-03-06T10:14:16.440Z,50.45
2023-03-06T10:17:24.067Z,49.78
2023-03-06T10:20:33.858Z,49.78
2023-03-06T10:23:51.854Z,50.17
2023-03-06T10:27:21.628Z,51.25
2023-03-06T10:30:59.645Z,53.47
2023-03-06T10:34:22.896Z,53.71
2023-03-06T10:37:26.279Z,55.39
2023-03-06T10:40:40.500Z,56.78
2023-03-06T10:43:44.602Z,56.07
2023-03-06T10:46:50.037Z,56.72
2023-03-06T10:50:01.725Z,56.90
2023-03-06T10:53:19.244Z,57.15
2023-03-06T10:56:29.373Z,57.59
2023-03-06T10:59:32.213Z,58.78
2023-03-06T11:02:38.696Z,59.84
2023-03-06T11:05:58.253Z,59.54
2023-03-06T11:09:18.822Z,59.45
2023-03-06T11:12:33.342Z,59.49
2023-03-06T11:15:36.237Z,60.72
2023-03-06T11:18:41.152Z,59.17
2023-03-06T11:21:58.515Z,59.88
2023-03-06T11:25:01.629Z,60.33
2023-03-06T11:28:34.864Z,60.18
2023-03-06T11:32:07.556Z,60.54
2023-03-06T11:35:14.135Z,60.34
2023-03-06T11:38:30.942Z,61.32
2023-03-06T11:41:48.055Z,60.66
2023-03-06T11:44:55.496Z,60.45
2023-03-06T11:48:11.873Z,60.19
2023-03-06T11:51:19.908Z,61.76
2023-03-06T11:54:23.282Z,60.81
2023-03-06T11:57:35.288Z,62.29
2023-03-06T12:01:15.967Z,61.37
2023-03-06T12:04:24.189Z,62.63
2023-03-06T12:07:35.873Z,62.29
2023-03-06T12:10:51.869Z,62.36
2023-03-06T12:14:12.444Z,62.66
2023-03-06T12:17:26.885Z,63.02
2023-03-06T12:20:33.077Z,63.11
2023-03-06T12:24:00.663Z,62.68
2023-03-06T12:27:19.993Z,63.04
2023-03-06T12:30:31.371Z,63.54
2023-03-06T12:33:58.660Z,63.31
2023-03-06T12:37:04.086Z,63.25
2023-03-06T12:40:30.758Z,63.02
2023-03-06T12:43:45.344Z,62.64
2023-03-06T12:46:54.916Z,62.42
2023-03-06T12:50:05.320Z,62.32
2023-03-06T12:53:14.530Z,62.52
2023-03-06T12:56:19.032Z,62.77
2023-03-06T12:59:42.825Z,62.01
2023-03-06T13:03:12.432Z,61.09
2023-03-06T13:06:32.462Z,60.72
2023-03-06T13:09:58.058Z,59.98
2023-03-06T13:13:05.133Z,60.76
2023-03-06T13:16:12.524Z,60.08
2023-03-06T13:19:25.298Z,58.67
2023-03-06T13:22:30.124Z,58.23
2023-03-06T13:25:45.791Z,58.47
2023-03-06T13:28:51.071Z,59.14
2023-03-06T13:31:53.734Z,60.06
2023-03-06T13:34:56.447Z,60.22
2023-03-06T13:38:00.287Z,59.01
2023-03-06T13:41:21.131Z,59.42
2023-03-06T13:44:23.682Z,59.95
2023-03-06T13:48:02.789Z,60.42
2023-03-06T13:51:24.729Z,60.47
2023-03-06T13:54:27.285Z,61.67
2023-03-06T13:57:38.678Z,61.66
2023-03-06T14:00:56.071Z,60.59
2023-03-06T14:04:15.395Z,61.30
2023-03-06T14:07:20.690Z,61.96
2023-03-06T14:10:25.426Z,61.45
2023-03-06T14:13:46.703Z,62.13
2023-03-06T14:16:51.090Z,61.57
2023-03-06T14:19:54.917Z,60.92
2023-03-06T14:23:26.894Z,60.86
2023-03-06T14:26:44.165Z,62.29
2023-03-06T14:29:48.808Z,60.94
2023-03-06T14:32:53.998Z,61.54
2023-03-06T14:36:01.184Z,61.37
2023-03-06T14:39:22.883Z,61.79
2023-03-06T14:42:29.687Z,61.87
2023-03-06T14:45:32.358Z,63.38
2023-03-06T14:48:41.373Z,62.50
2023-03-06T14:51:46.834Z,62.49
2023-03-06T14:54:49.977Z,62.55
2023-03-06T14:58:04.619Z,62.33
2023-03-06T15:01:09.893Z,62.94
2023-03-06T15:04:26.432Z,63.87
2023-03-06T15:07:32.611Z,64.90
2023-03-06T15:10:36.798Z,64.21
2023-03-06T15:13:39.704Z,64.42
2023-03-06T15:16:42.425Z,64.23
2023-03-06T15:19:47.410Z,65.65
2023-03-06T15:22:50.984Z,63.29
2023-03-06T15:26:03.618Z,62.96
2023-03-06T15:29:10.062Z,62.93
2023-03-06T15:32:34.737Z,63.86
2023-03-06T15:35:38.406Z,62.72
2023-03-06T15:38:44.203Z,64.43
2023-03-06T15:41:46.872Z,64.67
2023-03-06T15:45:03.372Z,65.60
2023-03-06T15:48:16.936Z,66.44
2023-03-06T15:51:19.818Z,65.96
2023-03-06T15:54:22.447Z,65.81
2023-03-06T15:57:29.158Z,66.81
2023-03-06T16:00:38.517Z,67.35
2023-03-06T16:03:41.155Z,66.43
2023-03-06T16:06:47.257Z,66.83
2023-03-06T16:09:49.871Z,66.75
2023-03-06T16:12:59.820Z,67.71
2023-03-06T16:16:02.492Z,68.07
2023-03-06T16:19:23.859Z,68.33
2023-03-06T16:22:28.410Z,67.78
2023-03-06T16:25:31.191Z,68.74
2023-03-06T16:28:33.789Z,68.53
2023-03-06T16:31:37.043Z,68.70
2023-03-06T16:34:39.622Z,68.78
2023-03-06T16:37:42.540Z,69.16
2023-03-06T16:40:45.383Z,69.96
2023-03-06T16:43:48.496Z,69.76
2023-03-06T16:46:51.336Z,69.70
2023-03-06T16:49:58.097Z,69.84
2023-03-06T16:53:00.913Z,69.93
2023-03-06T16:56:03.603Z,69.74
2023-03-06T16:59:06.163Z,71.82
2023-03-06T17:02:10.967Z,71.03
2023-03-06T17:05:13.879Z,70.90
2023-03-06T17:08:16.537Z,70.39
2023-03-06T17:11:20.506Z,70.18
2023-03-06T17:14:23.172Z,71.24
2023-03-06T17:17:25.947Z,70.42
2023-03-06T17:20:28.532Z,71.00
2023-03-06T17:23:31.075Z,70.29
2023-03-06T17:26:34.027Z,69.68
2023-03-06T17:29:37.143Z,69.44
2023-03-06T17:32:42.889Z,69.56
2023-03-06T17:35:45.618Z,69.99
2023-03-06T17:38:48.629Z,70.35
2023-03-06T17:41:51.450Z,69.92
2023-03-06T17:44:54.322Z,69.19
2023-03-06T17:47:57.224Z,69.14
2023-03-06T17:51:00.650Z,68.89
2023-03-06T17:54:03.561Z,69.88
2023-03-06T17:57:06.353Z,70.02
2023-03-06T18:00:10.865Z,68.84
2023-03-06T18:03:19.010Z,69.29
2023-03-06T18:06:22.553Z,69.19
2023-03-06T18:09:25.537Z,69.88
2023-03-06T18:12:29.485Z,68.96
2023-03-06T18:15:32.173Z,69.71
2023-03-06T18:18:35.269Z,71.54
2023-03-06T18:21:39.981Z,72.65
2023-03-06T18:24:43.903Z,72.57
2023-03-06T18:27:46.849Z,73.25
2023-03-06T18:30:50.010Z,73.47
2023-03-06T18:33:55.188Z,72.57
2023-03-06T18:36:58.118Z,72.62
2023-03-06T18:40:01.028Z,72.08
2023-03-06T18:43:03.746Z,71.95
2023-03-06T18:46:06.997Z,72.82
2023-03-06T18:49:11.850Z,72.17
2023-03-06T18:52:15.017Z,72.57
2023-03-06T18:55:17.891Z,72.71
2023-03-06T18:58:21.855Z,73.27
2023-03-06T19:01:25.521Z,74.03
2023-03-06T19:04:28.597Z,74.69
2023-03-06T19:07:31.491Z,76.04
2023-03-06T19:10:36.374Z,76.62
2023-03-06T19:13:39.341Z,76.95
2023-03-06T19:16:42.692Z,77.76
2023-03-06T19:19:45.510Z,77.69
2023-03-06T19:22:48.225Z,77.99
2023-03-06T19:25:59.130Z,77.96
2023-03-06T19:29:02.160Z,78.15
2023-03-06T19:32:05.317Z,78.50
2023-03-06T19:35:12.650Z,79.18
2023-03-06T19:38:15.672Z,78.98
2023-03-06T19:41:18.403Z,78.70
2023-03-06T19:44:21.348Z,79.11
2023-03-06T19:47:24.264Z,78.40
2023-03-06T19:50:30.702Z,79.50
2023-03-06T19:53:35.315Z,79.06
2023-03-06T19:56:38.170Z,79.05
2023-03-06T19:59:41.930Z,77.80
2023-03-06T20:02:44.824Z,79.31
2023-03-06T20:05:47.980Z,79.22
2023-03-06T20:08:51.377Z,79.21
2023-03-06T20:11:54.774Z,79.52
2023-03-06T20:14:57.392Z,79.28
2023-03-06T20:18:00.243Z,79.23
2023-03-06T20:21:04.541Z,78.63
2023-03-06T20:24:09.997Z,77.98
2023-03-06T20:27:13.289Z,77.04
2023-03-06T20:30:17.200Z,76.78
2023-03-06T20:33:22.288Z,77.65
2023-03-06T20:36:28.963Z,77.90
2023-03-06T20:39:32.270Z,75.93
2023-03-06T20:42:35.251Z,77.38
2023-03-06T20:45:38.154Z,77.85
2023-03-06T20:48:42.076Z,78.43
2023-03-06T20:51:45.856Z,78.77
2023-03-06T20:54:48.983Z,78.75
2023-03-06T20:57:52.606Z,79.21
2023-03-06T21:00:55.545Z,79.58
2023-03-06T21:03:58.766Z,79.06
2023-03-06T21:07:01.366Z,79.03
2023-03-06T21:10:04.647Z,80.02
2023-03-06T21:13:07.537Z,79.07
2023-03-06T21:16:13.716Z,80.24
2023-03-06T21:19:17.178Z,80.41
2023-03-06T21:22:20.379Z,81.00
2023-03-06T21:25:23.266Z,80.53
2023-03-06T21:28:25.872Z,80.13
2023-03-06T21:31:29.638Z,79.65
2023-03-06T21:34:32.314Z,80.31
2023-03-06T21:37:34.948Z,79.47
2023-03-06T21:40:38.085Z,80.10
2023-03-06T21:43:41.244Z,80.86
2023-03-06T21:46:43.874Z,80.68
2023-03-06T21:49:49.001Z,80.56
2023-03-06T21:52:52.294Z,80.24
2023-03-06T21:55:54.909Z,81.09
2023-03-06T21:58:58.359Z,80.87
2023-03-06T22:02:01.024Z,80.14
2023-03-06T22:05:04.656Z,80.14
2023-03-06T22:08:07.379Z,79.51
2023-03-06T22:11:13.334Z,80.01
2023-03-06T22:14:15.964Z,78.68
2023-03-06T22:17:18.480Z,79.80
2023-03-06T22:20:21.103Z,79.44
2023-03-06T22:23:23.812Z,79.80
2023-03-06T22:26:28.183Z,79.31
2023-03-06T22:29:30.962Z,80.67
2023-03-06T22:32:33.711Z,81.67
2023-03-06T22:35:36.367Z,81.88
2023-03-06T22:38:41.205Z,81.63
2023-03-06T22:41:43.772Z,80.88
2023-03-06T22:44:46.491Z,81.17
2023-03-06T22:47:49.019Z,81.34
2023-03-06T22:50:51.574Z,81.25
2023-03-06T22:53:54.295Z,82.20
2023-03-06T22:56:56.900Z,81.88
2023-03-06T22:59:59.469Z,82.66
2023-03-06T23:03:02.302Z,83.51
2023-03-06T23:06:09.859Z,81.77
2023-03-06T23:09:21.555Z,81.98
2023-03-06T23:12:44.156Z,82.86
2023-03-06T23:16:07.234Z,82.79
2023-03-06T23:19:28.982Z,83.37
2023-03-06T23:22:50.294Z,82.74
2023-03-06T23:26:13.979Z,83.04
2023-03-06T23:29:16.624Z,83.53
2023-03-06T23:32:19.341Z,83.92
2023-03-06T23:35:22.159Z,83.46
2023-03-06T23:38:24.747Z,82.63
2023-03-06T23:41:27.330Z,83.68
2023-03-06T23:44:29.994Z,83.74
2023-03-06T23:47:34.152Z,83.35
2023-03-06T23:50:39.749Z,82.88
2023-03-06T23:53:43.989Z,81.45
2023-03-06T23:56:46.575Z,82.34
2023-03-06T23:59:49.190Z,82.37
